createdAt,value
2022-11-26T00:02:22.907Z,16.10
2022-11-26T00:04:52.531Z,17.40
2022-11-26T00:07:26.178Z,15.70
2022-11-26T00:09:56.027Z,14.10
2022-11-26T00:12:29.149Z,16.40
2022-11-26T00:14:57.132Z,12.80
2022-11-26T00:17:25.163Z,14.10
2022-11-26T00:19:53.250Z,8.30
2022-11-26T00:22:28.969Z,11.30
2022-11-26T00:24:57.687Z,10.80
2022-11-26T00:27:28.442Z,8.90
2022-11-26T00:29:56.493Z,16.50
2022-11-26T00:32:26.691Z,17.80
2022-11-26T00:34:54.869Z,17.50
2022-11-26T00:37:27.629Z,18.80
2022-11-26T00:39:57.439Z,17.90
2022-11-26T00:42:25.701Z,16.60
2022-11-26T00:44:53.829Z,17.30
2022-11-26T00:47:21.734Z,15.80
2022-11-26T00:49:50.012Z,16.30
2022-11-26T00:52:32.583Z,14.80
2022-11-26T00:55:06.968Z,15.50
2022-11-26T00:57:35.222Z,15.70
2022-11-26T01:00:18.857Z,9.80
2022-11-26T01:02:47.272Z,7.30
2022-11-26T01:05:16.822Z,16.60
2022-11-26T01:07:45.576Z,17.20
2022-11-26T01:10:16.761Z,17.60
2022-11-26T01:12:45.177Z,15.50
2022-11-26T01:15:14.549Z,14.40
2022-11-26T01:17:43.386Z,14.80
2022-11-26T01:20:25.173Z,12.80
2022-11-26T01:22:55.140Z,13.90
2022-11-26T01:25:25.418Z,12.70
2022-11-26T01:27:53.741Z,7.10
2022-11-26T01:30:25.794Z,12.40
2022-11-26T01:32:53.944Z,8.90
2022-11-26T01:35:22.735Z,12.60
2022-11-26T01:37:51.149Z,12.90
2022-11-26T01:40:37.710Z,13.80
2022-11-26T01:43:12.018Z,11.50
2022-11-26T01:45:40.363Z,12.60
2022-11-26T01:48:20.699Z,11.80
2022-11-26T01:50:56.579Z,11.80
2022-11-26T01:53:38.382Z,7.80
2022-11-26T01:56:18.482Z,11.70
2022-11-26T01:58:51.594Z,14.40
2022-11-26T02:01:20.121Z,16.50
2022-11-26T02:03:57.213Z,16.20
2022-11-26T02:06:31.710Z,11.80
2022-11-26T02:09:02.213Z,10.20
2022-11-26T02:11:30.889Z,11.80
2022-11-26T02:14:04.315Z,13.30
2022-11-26T02:16:46.960Z,18.10
2022-11-26T02:19:47.971Z,15.50
2022-11-26T02:22:24.908Z,7.50
2022-11-26T02:24:58.941Z,15.50
2022-11-26T02:28:00.564Z,14.20
2022-11-26T02:30:36.539Z,14.90
2022-11-26T02:33:11.814Z,15.50
2022-11-26T02:35:56.487Z,15.70
2022-11-26T02:38:30.555Z,9.40
2022-11-26T02:41:00.575Z,13.80
2022-11-26T02:43:30.102Z,13.10
2022-11-26T02:46:05.161Z,15.20
2022-11-26T02:48:37.514Z,8.60
2022-11-26T02:51:10.751Z,13.60
2022-11-26T02:53:40.219Z,15.80
2022-11-26T02:56:26.438Z,14.30
2022-11-26T02:58:56.326Z,15.00
2022-11-26T03:01:41.544Z,15.00
2022-11-26T03:04:17.074Z,14.30
2022-11-26T03:06:46.697Z,14.10
2022-11-26T03:09:18.132Z,13.70
2022-11-26T03:11:46.153Z,15.20
2022-11-26T03:14:14.403Z,14.80
2022-11-26T03:16:42.566Z,13.60
2022-11-26T03:19:10.883Z,9.50
2022-11-26T03:21:38.909Z,7.60
2022-11-26T03:24:07.035Z,10.00
2022-11-26T03:26:35.202Z,6.90
2022-11-26T03:29:03.303Z,7.40
2022-11-26T03:31:31.697Z,10.70
2022-11-26T03:33:59.791Z,9.10
2022-11-26T03:36:27.891Z,13.30
2022-11-26T03:38:55.943Z,13.80
2022-11-26T03:41:24.200Z,13.30
2022-11-26T03:43:52.311Z,10.60
2022-11-26T03:46:20.587Z,9.60
2022-11-26T03:48:48.699Z,10.20
2022-11-26T03:51:16.966Z,8.40
2022-11-26T03:53:45.079Z,8.30
2022-11-26T03:56:13.310Z,8.90
2022-11-26T03:58:41.400Z,16.50
2022-11-26T04:01:11.314Z,11.80
2022-11-26T04:03:40.051Z,14.20
2022-11-26T04:06:08.377Z,20.50
2022-11-26T04:08:36.797Z,17.90
2022-11-26T04:11:04.887Z,12.40
2022-11-26T04:13:32.914Z,20.20
2022-11-26T04:16:01.112Z,19.20
2022-11-26T04:18:29.055Z,19.80
2022-11-26T04:20:57.086Z,20.10
2022-11-26T04:23:25.221Z,20.10
2022-11-26T04:25:53.399Z,17.30
2022-11-26T04:28:21.514Z,16.80
2022-11-26T04:30:49.566Z,16.20
2022-11-26T04:33:17.763Z,16.40
2022-11-26T04:35:45.974Z,8.60
2022-11-26T04:38:14.152Z,12.20
2022-11-26T04:40:42.210Z,11.20
2022-11-26T04:43:10.168Z,11.30
2022-11-26T04:45:38.186Z,8.40
2022-11-26T04:48:06.764Z,11.10
2022-11-26T04:50:34.803Z,11.40
2022-11-26T04:53:02.898Z,8.30
2022-11-26T04:55:31.012Z,11.80
2022-11-26T04:57:59.333Z,11.80
2022-11-26T05:00:27.592Z,10.20
2022-11-26T05:02:55.685Z,10.00
2022-11-26T05:05:23.831Z,5.70
2022-11-26T05:07:52.066Z,5.90
2022-11-26T05:10:20.349Z,9.50
2022-11-26T05:12:48.493Z,8.10
2022-11-26T05:15:16.649Z,12.30
2022-11-26T05:17:44.698Z,11.10
2022-11-26T05:20:14.975Z,8.60
2022-11-26T05:22:43.243Z,13.60
2022-11-26T05:25:11.280Z,13.80
2022-11-26T05:27:39.523Z,14.70
2022-11-26T05:30:08.427Z,15.80
2022-11-26T05:32:36.441Z,14.60
2022-11-26T05:35:05.348Z,13.00
2022-11-26T05:37:33.579Z,10.30
2022-11-26T05:40:01.734Z,8.90
2022-11-26T05:42:29.807Z,12.80
2022-11-26T05:44:57.785Z,13.80
2022-11-26T05:47:25.841Z,14.00
2022-11-26T05:49:54.255Z,13.00
2022-11-26T05:52:22.966Z,9.60
2022-11-26T05:54:51.089Z,6.60
2022-11-26T05:57:20.150Z,7.50
2022-11-26T05:59:51.673Z,8.10
2022-11-26T06:02:19.886Z,9.40
2022-11-26T06:04:48.063Z,10.20
2022-11-26T06:07:15.999Z,11.20
2022-11-26T06:09:44.248Z,10.80
2022-11-26T06:12:12.325Z,8.40
2022-11-26T06:14:43.224Z,5.10
2022-11-26T06:17:12.145Z,7.10
2022-11-26T06:19:40.278Z,5.70
2022-11-26T06:22:08.693Z,6.10
2022-11-26T06:24:37.295Z,8.30
2022-11-26T06:27:05.759Z,7.20
2022-11-26T06:29:34.011Z,6.80
2022-11-26T06:32:02.576Z,11.10
2022-11-26T06:34:30.595Z,9.70
2022-11-26T06:36:58.667Z,11.40
2022-11-26T06:39:27.025Z,10.00
2022-11-26T06:41:55.159Z,11.40
2022-11-26T06:44:23.142Z,9.10
2022-11-26T06:46:51.288Z,6.00
2022-11-26T06:49:19.397Z,6.00
2022-11-26T06:51:47.385Z,7.00
2022-11-26T06:54:15.573Z,8.40
2022-11-26T06:56:43.724Z,8.20
2022-11-26T06:59:12.030Z,10.60
2022-11-26T07:01:40.381Z,10.50
2022-11-26T07:04:10.482Z,10.10
2022-11-26T07:06:39.496Z,10.70
2022-11-26T07:09:10.036Z,10.10
2022-11-26T07:11:39.426Z,11.10
2022-11-26T07:14:08.546Z,9.70
2022-11-26T07:16:37.239Z,7.20
2022-11-26T07:19:05.355Z,10.50
2022-11-26T07:21:33.553Z,11.00
2022-11-26T07:24:01.629Z,11.10
2022-11-26T07:26:29.830Z,11.10
2022-11-26T07:28:57.884Z,8.40
2022-11-26T07:31:26.054Z,7.20
2022-11-26T07:33:54.292Z,5.30
2022-11-26T07:36:24.776Z,8.50
2022-11-26T07:39:01.517Z,6.30
2022-11-26T07:41:30.596Z,7.50
2022-11-26T07:43:58.568Z,7.70
2022-11-26T07:46:27.339Z,5.40
2022-11-26T07:48:56.071Z,12.00
2022-11-26T07:51:29.710Z,7.20
2022-11-26T07:54:00.124Z,6.50
2022-11-26T07:56:28.619Z,10.00
2022-11-26T07:58:56.905Z,12.20
2022-11-26T08:01:28.391Z,7.50
2022-11-26T08:03:58.206Z,11.40
2022-11-26T08:06:30.506Z,10.60
2022-11-26T08:09:00.117Z,11.10
2022-11-26T08:11:30.865Z,10.60
2022-11-26T08:14:05.173Z,10.70
2022-11-26T08:16:34.333Z,10.80
2022-11-26T08:19:10.944Z,9.80
2022-11-26T08:21:40.017Z,7.50
2022-11-26T08:24:16.310Z,9.40
2022-11-26T08:26:45.138Z,10.50
2022-11-26T08:29:13.890Z,9.70
2022-11-26T08:31:46.002Z,10.60
2022-11-26T08:36:45.609Z,8.70
2022-11-26T08:39:18.467Z,7.40
2022-11-26T08:41:52.078Z,9.70
2022-11-26T08:44:21.661Z,8.40
2022-11-26T08:46:50.687Z,7.60
2022-11-26T08:49:18.826Z,9.90
2022-11-26T08:51:46.859Z,10.00
2022-11-26T08:54:15.132Z,9.80
2022-11-26T08:56:43.346Z,8.70
2022-11-26T08:59:11.447Z,8.90
2022-11-26T09:01:40.478Z,3.40
2022-11-26T09:04:08.623Z,8.00
2022-11-26T09:06:41.027Z,7.40
2022-11-26T09:09:12.923Z,8.30
2022-11-26T09:11:57.388Z,6.20
2022-11-26T09:14:29.843Z,4.80
2022-11-26T09:17:03.758Z,6.70
2022-11-26T09:19:38.476Z,5.90
2022-11-26T09:22:11.438Z,5.30
2022-11-26T09:24:50.871Z,5.80
2022-11-26T09:27:20.457Z,6.80
2022-11-26T09:29:48.834Z,5.30
2022-11-26T09:32:27.133Z,8.60
2022-11-26T09:34:59.317Z,7.60
2022-11-26T09:37:27.277Z,8.80
2022-11-26T09:39:55.707Z,10.00
2022-11-26T09:42:37.860Z,12.00
2022-11-26T09:45:21.587Z,8.80
2022-11-26T09:47:53.306Z,7.30
2022-11-26T09:50:32.178Z,7.40
2022-11-26T09:53:13.433Z,9.10
2022-11-26T09:55:45.133Z,8.60
2022-11-26T09:58:27.005Z,9.40
2022-11-26T10:01:00.147Z,12.00
2022-11-26T10:03:34.934Z,8.60
2022-11-26T10:06:08.907Z,12.70
2022-11-26T10:09:04.282Z,11.50
2022-11-26T10:12:10.983Z,10.50
2022-11-26T10:15:20.440Z,8.30
2022-11-26T10:18:02.771Z,6.00
2022-11-26T10:20:37.004Z,5.50
2022-11-26T10:23:11.328Z,7.60
2022-11-26T10:25:54.696Z,8.90
2022-11-26T10:28:31.051Z,11.70
2022-11-26T10:31:01.955Z,11.60
2022-11-26T10:33:56.118Z,9.30
2022-11-26T10:36:27.242Z,10.90
2022-11-26T10:38:58.686Z,11.10
2022-11-26T10:41:31.082Z,11.20
2022-11-26T10:44:40.597Z,9.20
2022-11-26T10:47:25.062Z,10.70
2022-11-26T10:50:45.390Z,11.10
2022-11-26T10:53:06.591Z,12.10
2022-11-26T10:55:39.662Z,8.60
2022-11-26T10:58:17.182Z,6.20
2022-11-26T11:00:51.092Z,10.30
2022-11-26T11:03:38.584Z,8.90
2022-11-26T11:06:20.124Z,9.90
2022-11-26T11:08:50.736Z,10.20
2022-11-26T11:11:21.858Z,11.00
2022-11-26T11:13:51.406Z,8.70
2022-11-26T11:16:38.377Z,11.40
2022-11-26T11:19:23.648Z,14.10
2022-11-26T11:21:52.079Z,12.20
2022-11-26T11:24:29.076Z,9.00
2022-11-26T11:27:00.461Z,11.80
2022-11-26T11:29:39.040Z,13.90
2022-11-26T11:32:33.512Z,18.50
2022-11-26T11:35:20.207Z,12.80
2022-11-26T11:37:51.654Z,8.20
2022-11-26T11:40:25.548Z,12.70
2022-11-26T11:43:03.095Z,18.40
2022-11-26T11:45:42.001Z,9.40
2022-11-26T11:48:22.202Z,10.40
2022-11-26T11:51:06.012Z,9.10
2022-11-26T11:54:00.181Z,9.10
2022-11-26T11:56:42.008Z,7.70
2022-11-26T11:59:19.700Z,5.20
2022-11-26T12:02:21.308Z,6.30
2022-11-26T12:04:58.516Z,7.20
2022-11-26T12:07:39.473Z,4.50
2022-11-26T12:10:27.106Z,5.90
2022-11-26T12:13:01.561Z,5.90
2022-11-26T12:16:01.944Z,5.90
2022-11-26T12:19:00.357Z,6.80
2022-11-26T12:21:39.466Z,7.30
2022-11-26T12:24:22.667Z,12.80
2022-11-26T12:27:03.428Z,12.60
2022-11-26T12:29:47.264Z,10.60
2022-11-26T12:32:25.730Z,11.20
2022-11-26T12:34:58.366Z,11.50
2022-11-26T12:40:23.966Z,25.10
2022-11-26T12:42:51.941Z,19.00
2022-11-26T12:45:35.210Z,17.90
2022-11-26T12:48:26.207Z,18.00
2022-11-26T12:50:59.050Z,22.20
2022-11-26T12:53:57.800Z,16.50
2022-11-26T12:56:46.212Z,11.90
2022-11-26T12:59:27.745Z,8.40
2022-11-26T13:01:57.628Z,9.30
2022-11-26T13:04:37.605Z,11.30
2022-11-26T13:07:17.947Z,14.00
2022-11-26T13:10:12.251Z,11.50
2022-11-26T13:13:05.061Z,14.10
2022-11-26T13:15:42.654Z,12.40
2022-11-26T13:18:23.031Z,15.80
2022-11-26T13:21:15.938Z,16.10
2022-11-26T13:24:04.867Z,15.40
2022-11-26T13:27:05.269Z,14.00
2022-11-26T13:29:51.370Z,14.40
2022-11-26T13:32:38.012Z,11.50
2022-11-26T13:35:18.519Z,12.80
2022-11-26T13:38:09.715Z,14.60
2022-11-26T13:40:43.754Z,9.40
2022-11-26T13:43:42.765Z,16.00
2022-11-26T13:46:22.341Z,17.10
2022-11-26T13:48:56.210Z,16.40
2022-11-26T13:51:33.944Z,14.40
2022-11-26T13:54:17.154Z,12.00
2022-11-26T13:56:47.244Z,12.80
2022-11-26T13:59:28.111Z,13.30
2022-11-26T14:01:56.905Z,12.40
2022-11-26T14:04:25.128Z,12.10
2022-11-26T14:07:05.285Z,10.70
2022-11-26T14:09:42.346Z,17.00
2022-11-26T14:12:14.931Z,16.90
2022-11-26T14:14:49.162Z,19.20
2022-11-26T14:17:25.195Z,20.60
2022-11-26T14:19:56.962Z,22.40
2022-11-26T14:22:34.330Z,27.70
2022-11-26T14:25:09.382Z,19.90
2022-11-26T14:27:55.300Z,12.60
2022-11-26T14:30:26.115Z,16.50
2022-11-26T14:33:09.428Z,25.10
2022-11-26T14:35:40.011Z,40.70
2022-11-26T14:38:24.673Z,47.00
2022-11-26T14:41:00.520Z,40.50
2022-11-26T14:43:29.590Z,22.80
2022-11-26T14:46:04.590Z,24.40
2022-11-26T14:48:37.482Z,23.30
2022-11-26T14:51:08.537Z,38.50
2022-11-26T14:53:45.338Z,39.20
2022-11-26T14:56:13.554Z,25.60
2022-11-26T14:58:59.333Z,23.30
2022-11-26T15:01:29.489Z,40.10
2022-11-26T15:04:02.841Z,47.90
2022-11-26T15:06:38.447Z,27.10
2022-11-26T15:09:15.682Z,30.70
2022-11-26T15:12:05.429Z,30.70
2022-11-26T15:14:56.279Z,27.80
2022-11-26T15:17:26.898Z,26.10
2022-11-26T15:19:59.909Z,17.50
2022-11-26T15:22:39.811Z,18.80
2022-11-26T15:25:25.212Z,18.80
2022-11-26T15:28:00.505Z,16.10
2022-11-26T15:30:34.265Z,21.90
2022-11-26T15:33:05.660Z,25.70
2022-11-26T15:35:36.279Z,26.90
2022-11-26T15:38:17.797Z,21.60
2022-11-26T15:41:04.629Z,43.40
2022-11-26T15:43:49.093Z,19.80
2022-11-26T15:46:20.046Z,27.80
2022-11-26T15:48:53.377Z,19.60
2022-11-26T15:51:53.843Z,13.00
2022-11-26T15:54:56.655Z,15.40
2022-11-26T15:57:30.071Z,14.80
2022-11-26T16:00:06.234Z,14.60
2022-11-26T16:02:34.773Z,37.10
2022-11-26T16:05:03.830Z,27.00
2022-11-26T16:07:33.328Z,31.60
2022-11-26T16:10:16.486Z,19.40
2022-11-26T16:13:16.285Z,32.00
2022-11-26T16:16:16.317Z,28.40
2022-11-26T16:18:51.727Z,32.40
2022-11-26T16:21:24.639Z,34.40
2022-11-26T16:24:08.372Z,32.10
2022-11-26T16:27:01.041Z,20.60
2022-11-26T16:29:30.314Z,23.60
2022-11-26T16:31:59.329Z,31.00
2022-11-26T16:34:27.946Z,18.50
2022-11-26T16:37:15.921Z,22.40
2022-11-26T16:39:44.273Z,32.40
2022-11-26T16:42:17.794Z,22.60
2022-11-26T16:44:45.992Z,31.80
2022-11-26T16:47:15.630Z,33.20
2022-11-26T16:49:44.187Z,28.30
2022-11-26T16:52:17.386Z,23.40
2022-11-26T16:54:45.671Z,32.80
2022-11-26T16:57:15.894Z,37.60
2022-11-26T16:59:48.050Z,31.70
2022-11-26T17:02:21.590Z,30.70
2022-11-26T17:04:50.645Z,20.10
2022-11-26T17:07:26.692Z,32.20
2022-11-26T17:09:55.615Z,30.70
2022-11-26T17:12:25.338Z,22.40
2022-11-26T17:14:53.868Z,19.00
2022-11-26T17:17:28.223Z,37.30
2022-11-26T17:19:57.019Z,39.90
2022-11-26T17:22:25.467Z,40.70
2022-11-26T17:24:53.614Z,38.40
2022-11-26T17:27:23.582Z,33.70
2022-11-26T17:29:51.621Z,31.40
2022-11-26T17:32:22.676Z,31.00
2022-11-26T17:34:50.896Z,32.60
2022-11-26T17:37:28.480Z,23.40
2022-11-26T17:39:58.120Z,31.60
2022-11-26T17:42:28.317Z,33.70
2022-11-26T17:44:58.881Z,31.50
2022-11-26T17:47:27.471Z,32.90
2022-11-26T17:49:55.678Z,24.90
2022-11-26T17:52:23.908Z,30.00
2022-11-26T17:54:52.037Z,26.30
2022-11-26T17:57:20.922Z,39.90
2022-11-26T17:59:48.920Z,25.30
2022-11-26T18:02:17.406Z,34.00
2022-11-26T18:04:45.873Z,22.30
2022-11-26T18:07:17.812Z,19.70
2022-11-26T18:09:47.054Z,35.80
2022-11-26T18:12:25.401Z,32.60
2022-11-26T18:14:55.529Z,33.60
2022-11-26T18:17:24.696Z,29.70
2022-11-26T18:19:53.098Z,20.60
2022-11-26T18:22:23.312Z,32.30
2022-11-26T18:24:57.207Z,25.50
2022-11-26T18:27:30.678Z,17.60
2022-11-26T18:29:58.859Z,19.50
2022-11-26T18:32:26.976Z,21.90
2022-11-26T18:34:55.027Z,19.40
2022-11-26T18:37:23.108Z,23.70
2022-11-26T18:39:51.268Z,31.70
2022-11-26T18:42:36.625Z,42.10
2022-11-26T18:45:09.079Z,35.70
2022-11-26T18:47:37.778Z,35.20
2022-11-26T18:50:06.862Z,37.80
2022-11-26T18:52:35.214Z,35.40
2022-11-26T18:55:08.402Z,22.90
2022-11-26T18:57:36.838Z,26.40
2022-11-26T19:00:07.177Z,16.10
2022-11-26T19:02:36.150Z,16.40
2022-11-26T19:05:05.408Z,24.80
2022-11-26T19:07:33.731Z,14.40
2022-11-26T19:10:02.066Z,14.40
2022-11-26T19:12:30.207Z,24.20
2022-11-26T19:14:58.312Z,29.10
2022-11-26T19:17:26.689Z,33.00
2022-11-26T19:19:54.828Z,34.80
2022-11-26T19:22:22.931Z,31.20
2022-11-26T19:24:51.378Z,22.80
2022-11-26T19:27:19.439Z,21.90
2022-11-26T19:29:47.857Z,20.90
2022-11-26T19:32:20.072Z,36.50
2022-11-26T19:34:48.398Z,37.10
2022-11-26T19:37:16.518Z,25.30
2022-11-26T19:39:44.506Z,34.40
2022-11-26T19:42:13.355Z,21.70
2022-11-26T19:44:41.401Z,22.60
2022-11-26T19:47:09.646Z,25.10
2022-11-26T19:49:37.940Z,31.20
2022-11-26T19:52:06.248Z,42.40
2022-11-26T19:54:34.566Z,42.30
2022-11-26T19:57:02.731Z,43.30
2022-11-26T19:59:31.026Z,40.10
2022-11-26T20:01:59.441Z,42.10
2022-11-26T20:04:27.760Z,38.70
2022-11-26T20:06:56.175Z,33.60
2022-11-26T20:09:24.172Z,21.30
2022-11-26T20:11:52.295Z,19.20
2022-11-26T20:14:20.366Z,35.70
2022-11-26T20:16:48.555Z,37.80
2022-11-26T20:19:18.054Z,36.40
2022-11-26T20:21:46.270Z,36.50
2022-11-26T20:24:16.935Z,29.10
2022-11-26T20:26:47.208Z,28.50
2022-11-26T20:29:17.139Z,40.20
2022-11-26T20:31:47.591Z,29.80
2022-11-26T20:34:26.355Z,30.10
2022-11-26T20:36:54.486Z,24.10
2022-11-26T20:39:24.018Z,36.70
2022-11-26T20:41:52.167Z,37.60
2022-11-26T20:44:20.248Z,35.50
2022-11-26T20:46:48.473Z,37.10
2022-11-26T20:49:16.535Z,38.90
2022-11-26T20:51:44.667Z,25.40
2022-11-26T20:54:12.733Z,30.00
2022-11-26T20:56:40.932Z,22.40
2022-11-26T20:59:09.925Z,28.50
2022-11-26T21:01:38.911Z,25.40
2022-11-26T21:04:07.117Z,26.60
2022-11-26T21:06:36.007Z,24.30
2022-11-26T21:09:06.506Z,25.20
2022-11-26T21:11:34.965Z,24.90
2022-11-26T21:14:03.055Z,39.20
2022-11-26T21:16:32.228Z,35.10
2022-11-26T21:19:00.683Z,32.70
2022-11-26T21:21:29.406Z,37.50
2022-11-26T21:23:58.126Z,37.10
2022-11-26T21:26:26.593Z,28.90
2022-11-26T21:28:58.004Z,17.20
2022-11-26T21:31:28.896Z,19.70
2022-11-26T21:34:07.855Z,19.30
2022-11-26T21:36:36.575Z,32.40
2022-11-26T21:39:05.308Z,21.60
2022-11-26T21:41:33.963Z,16.80
2022-11-26T21:44:04.090Z,27.30
2022-11-26T21:46:37.879Z,21.90
2022-11-26T21:49:07.499Z,30.90
2022-11-26T21:51:35.768Z,26.80
2022-11-26T21:54:04.280Z,27.70
2022-11-26T21:56:32.815Z,19.70
2022-11-26T21:59:01.653Z,21.20
2022-11-26T22:01:32.970Z,21.00
2022-11-26T22:04:04.623Z,34.70
2022-11-26T22:06:33.286Z,33.70
2022-11-26T22:09:02.033Z,32.50
2022-11-26T22:11:33.162Z,32.60
2022-11-26T22:14:01.438Z,28.60
2022-11-26T22:16:30.889Z,28.20
2022-11-26T22:19:00.772Z,29.10
2022-11-26T22:21:32.193Z,29.90
2022-11-26T22:24:02.108Z,29.00
2022-11-26T22:26:31.430Z,26.80
2022-11-26T22:29:00.038Z,22.10
2022-11-26T22:31:34.119Z,27.40
2022-11-26T22:34:08.628Z,25.30
2022-11-26T22:36:38.362Z,27.50
2022-11-26T22:39:10.978Z,27.30
2022-11-26T22:44:08.878Z,27.10
2022-11-26T22:46:38.428Z,16.80
2022-11-26T22:49:07.290Z,28.40
2022-11-26T22:51:35.385Z,20.90
2022-11-26T22:54:07.242Z,29.50
2022-11-26T22:56:39.561Z,29.20
2022-11-26T22:59:11.623Z,28.30
2022-11-26T23:01:39.857Z,27.90
2022-11-26T23:04:10.212Z,13.30
2022-11-26T23:06:39.654Z,15.90
2022-11-26T23:09:09.719Z,16.80
2022-11-26T23:11:40.488Z,28.20
2022-11-26T23:14:11.952Z,16.70
2022-11-26T23:16:42.217Z,31.50
2022-11-26T23:19:14.660Z,23.80
2022-11-26T23:21:44.849Z,17.70
2022-11-26T23:24:15.361Z,18.10
2022-11-26T23:26:44.304Z,33.40
2022-11-26T23:29:13.565Z,33.30
2022-11-26T23:31:43.785Z,38.20
2022-11-26T23:34:12.995Z,35.50
2022-11-26T23:36:41.298Z,29.70
2022-11-26T23:39:13.468Z,20.70
2022-11-26T23:41:41.640Z,33.60
2022-11-26T23:44:09.679Z,28.50
2022-11-26T23:46:37.844Z,40.70
2022-11-26T23:49:06.162Z,41.70
2022-11-26T23:51:34.200Z,41.60
2022-11-26T23:54:02.618Z,38.80
2022-11-26T23:56:33.327Z,29.00
2022-11-26T23:59:04.022Z,19.60
